Главная страница
METAR-TAF:

METAR-TAF

Аэропорты :

Hoonah, Аляска, США

Хуна

широта: 58-07N, долгота: 135-27W, высота над уровнем моря: 0 м

Текущие метеонаблюдения

Эта сводка был подготовлена 18 минут назад, в 04:04 UTC
Ветер 11 Узел от восточный
Температура 2°C
Влажность 93%
Давление 1011 hPa
Видимость: 14.5 км
Отдельные облака на высоте 2200 фута
Рассеянная облачность на высоте 2800 фута
Сплошная облачность на высоте 3700 фута
небольшой дождь

METAR: PAOH 230404Z AUTO 08011KT 9SM -RA SCT022 BKN028 OVC037 02/01 A2984 RMK AO2 P0001 FZRANO

Время: 19:22 (04:22 UTC)


TAF: отсутствует

Метеонаблюдения и прогнозы для более 4000 аэропортов (сводки METAR и TAF).

Имеющиеся станции представлены на карте желтыми и красными точками.

Чтобы увидеть название станции, наведите на нее мышь.

Затем щелкните, чтобы увидеть метеонаблюдения и метеопрогнозы.

Управление картой: чтобы увеличить масштаб, щелкните зеленые кнопки с черным крестиком; чтобы уменьшить масштаб, щелкните зеленую кнопку с тире; для просмотра соседних карт щелкайте зеленые стрелки.


METAR-TAF: